sensor_id;sensor_type;location;lat;lon;timestamp;P1;durP1;ratioP1;P2;durP2;ratioP2
27113;SDS011;14648;49.730;8.614;2022-11-20T00:01:27;17.33;;;10.87;;
27113;SDS011;14648;49.730;8.614;2022-11-20T00:03:54;24.67;;;12.87;;
27113;SDS011;14648;49.730;8.614;2022-11-20T00:06:22;17.33;;;10.17;;
27113;SDS011;14648;49.730;8.614;2022-11-20T00:08:51;18.00;;;11.40;;
27113;SDS011;14648;49.730;8.614;2022-11-20T00:11:21;19.23;;;10.87;;
27113;SDS011;14648;49.730;8.614;2022-11-20T00:13:50;18.53;;;11.23;;
27113;SDS011;14648;49.730;8.614;2022-11-20T00:16:20;18.30;;;10.80;;
27113;SDS011;14648;49.730;8.614;2022-11-20T00:18:48;16.10;;;10.37;;
27113;SDS011;14648;49.730;8.614;2022-11-20T00:21:18;13.23;;;8.83;;
27113;SDS011;14648;49.730;8.614;2022-11-20T00:23:50;16.00;;;9.83;;
27113;SDS011;14648;49.730;8.614;2022-11-20T00:26:19;18.70;;;10.80;;
27113;SDS011;14648;49.730;8.614;2022-11-20T00:28:50;16.60;;;9.67;;
27113;SDS011;14648;49.730;8.614;2022-11-20T00:31:18;16.17;;;9.00;;
27113;SDS011;14648;49.730;8.614;2022-11-20T00:33:45;18.23;;;10.40;;
27113;SDS011;14648;49.730;8.614;2022-11-20T00:36:15;15.50;;;9.47;;
27113;SDS011;14648;49.730;8.614;2022-11-20T00:38:44;19.30;;;9.53;;
27113;SDS011;14648;49.730;8.614;2022-11-20T00:41:11;17.20;;;10.10;;
27113;SDS011;14648;49.730;8.614;2022-11-20T00:43:39;15.50;;;10.00;;
27113;SDS011;14648;49.730;8.614;2022-11-20T00:46:10;16.10;;;10.43;;
27113;SDS011;14648;49.730;8.614;2022-11-20T00:48:43;17.10;;;9.70;;
27113;SDS011;14648;49.730;8.614;2022-11-20T00:51:10;19.27;;;10.70;;
27113;SDS011;14648;49.730;8.614;2022-11-20T00:53:38;16.27;;;9.43;;
27113;SDS011;14648;49.730;8.614;2022-11-20T00:56:06;17.50;;;9.90;;
27113;SDS011;14648;49.730;8.614;2022-11-20T00:58:36;18.53;;;10.13;;
27113;SDS011;14648;49.730;8.614;2022-11-20T01:01:05;15.80;;;9.50;;
27113;SDS011;14648;49.730;8.614;2022-11-20T01:03:42;19.03;;;9.30;;
27113;SDS011;14648;49.730;8.614;2022-11-20T01:06:11;17.60;;;9.90;;
27113;SDS011;14648;49.730;8.614;2022-11-20T01:08:46;14.33;;;8.70;;
27113;SDS011;14648;49.730;8.614;2022-11-20T01:11:15;13.43;;;8.37;;
27113;SDS011;14648;49.730;8.614;2022-11-20T01:13:47;18.07;;;10.07;;
27113;SDS011;14648;49.730;8.614;2022-11-20T01:16:25;14.60;;;8.77;;
27113;SDS011;14648;49.730;8.614;2022-11-20T01:18:56;13.40;;;8.70;;
27113;SDS011;14648;49.730;8.614;2022-11-20T01:21:25;17.33;;;9.60;;
27113;SDS011;14648;49.730;8.614;2022-11-20T01:23:59;16.20;;;9.63;;
27113;SDS011;14648;49.730;8.614;2022-11-20T01:26:26;19.10;;;8.50;;
27113;SDS011;14648;49.730;8.614;2022-11-20T01:28:55;14.13;;;9.40;;
27113;SDS011;14648;49.730;8.614;2022-11-20T01:31:34;19.23;;;9.23;;
27113;SDS011;14648;49.730;8.614;2022-11-20T01:34:05;21.40;;;10.87;;
27113;SDS011;14648;49.730;8.614;2022-11-20T01:36:35;15.50;;;9.30;;
27113;SDS011;14648;49.730;8.614;2022-11-20T01:39:15;16.00;;;9.97;;
27113;SDS011;14648;49.730;8.614;2022-11-20T01:41:47;16.73;;;10.33;;
27113;SDS011;14648;49.730;8.614;2022-11-20T01:44:43;12.67;;;8.13;;
27113;SDS011;14648;49.730;8.614;2022-11-20T01:47:25;15.07;;;9.33;;
27113;SDS011;14648;49.730;8.614;2022-11-20T01:50:22;18.20;;;9.10;;
27113;SDS011;14648;49.730;8.614;2022-11-20T01:52:53;19.57;;;10.90;;
27113;SDS011;14648;49.730;8.614;2022-11-20T01:55:29;20.13;;;10.50;;
27113;SDS011;14648;49.730;8.614;2022-11-20T01:57:59;15.20;;;9.60;;
27113;SDS011;14648;49.730;8.614;2022-11-20T02:00:27;17.50;;;10.37;;
27113;SDS011;14648;49.730;8.614;2022-11-20T02:02:54;20.50;;;10.47;;
27113;SDS011;14648;49.730;8.614;2022-11-20T02:05:35;18.43;;;10.80;;
27113;SDS011;14648;49.730;8.614;2022-11-20T02:08:17;20.13;;;9.50;;
27113;SDS011;14648;49.730;8.614;2022-11-20T02:10:44;21.73;;;10.77;;
27113;SDS011;14648;49.730;8.614;2022-11-20T02:13:10;21.17;;;10.30;;
27113;SDS011;14648;49.730;8.614;2022-11-20T02:15:54;18.53;;;11.23;;
27113;SDS011;14648;49.730;8.614;2022-11-20T02:18:20;19.67;;;10.03;;
27113;SDS011;14648;49.730;8.614;2022-11-20T02:20:48;18.43;;;10.40;;
27113;SDS011;14648;49.730;8.614;2022-11-20T02:23:27;20.23;;;10.73;;
27113;SDS011;14648;49.730;8.614;2022-11-20T02:26:03;19.57;;;11.07;;
27113;SDS011;14648;49.730;8.614;2022-11-20T02:28:34;16.53;;;9.97;;
27113;SDS011;14648;49.730;8.614;2022-11-20T02:31:00;15.40;;;9.37;;
27113;SDS011;14648;49.730;8.614;2022-11-20T02:33:26;21.37;;;12.17;;
27113;SDS011;14648;49.730;8.614;2022-11-20T02:35:51;16.27;;;9.07;;
27113;SDS011;14648;49.730;8.614;2022-11-20T02:38:17;21.83;;;11.30;;
27113;SDS011;14648;49.730;8.614;2022-11-20T02:40:43;17.20;;;10.07;;
27113;SDS011;14648;49.730;8.614;2022-11-20T02:43:09;17.53;;;9.47;;
27113;SDS011;14648;49.730;8.614;2022-11-20T02:45:35;14.57;;;8.47;;
27113;SDS011;14648;49.730;8.614;2022-11-20T02:48:01;19.50;;;10.63;;
27113;SDS011;14648;49.730;8.614;2022-11-20T02:50:26;14.00;;;8.93;;
27113;SDS011;14648;49.730;8.614;2022-11-20T02:52:52;17.90;;;11.03;;
27113;SDS011;14648;49.730;8.614;2022-11-20T02:55:18;17.80;;;9.43;;
27113;SDS011;14648;49.730;8.614;2022-11-20T02:57:43;18.40;;;9.03;;
27113;SDS011;14648;49.730;8.614;2022-11-20T03:00:09;15.50;;;9.30;;
27113;SDS011;14648;49.730;8.614;2022-11-20T03:02:36;20.33;;;9.73;;
27113;SDS011;14648;49.730;8.614;2022-11-20T03:05:01;17.37;;;10.43;;
27113;SDS011;14648;49.730;8.614;2022-11-20T03:07:27;17.07;;;10.33;;
27113;SDS011;14648;49.730;8.614;2022-11-20T03:09:53;16.40;;;9.30;;
27113;SDS011;14648;49.730;8.614;2022-11-20T03:12:19;19.23;;;9.20;;
27113;SDS011;14648;49.730;8.614;2022-11-20T03:14:44;20.43;;;10.10;;
27113;SDS011;14648;49.730;8.614;2022-11-20T03:17:10;20.43;;;11.57;;
27113;SDS011;14648;49.730;8.614;2022-11-20T03:19:36;21.33;;;10.17;;
27113;SDS011;14648;49.730;8.614;2022-11-20T03:22:01;16.40;;;9.37;;
27113;SDS011;14648;49.730;8.614;2022-11-20T03:24:27;17.40;;;10.03;;
27113;SDS011;14648;49.730;8.614;2022-11-20T03:26:52;18.20;;;9.97;;
27113;SDS011;14648;49.730;8.614;2022-11-20T03:29:18;18.17;;;9.80;;
27113;SDS011;14648;49.730;8.614;2022-11-20T03:31:44;20.43;;;10.10;;
27113;SDS011;14648;49.730;8.614;2022-11-20T03:34:10;16.00;;;9.50;;
27113;SDS011;14648;49.730;8.614;2022-11-20T03:36:38;16.63;;;9.70;;
27113;SDS011;14648;49.730;8.614;2022-11-20T03:39:04;15.53;;;9.20;;
27113;SDS011;14648;49.730;8.614;2022-11-20T03:41:31;15.97;;;9.20;;
27113;SDS011;14648;49.730;8.614;2022-11-20T03:44:02;19.40;;;9.80;;
27113;SDS011;14648;49.730;8.614;2022-11-20T03:46:31;16.07;;;9.20;;
27113;SDS011;14648;49.730;8.614;2022-11-20T03:48:57;21.27;;;11.00;;
27113;SDS011;14648;49.730;8.614;2022-11-20T03:51:27;16.20;;;9.80;;
27113;SDS011;14648;49.730;8.614;2022-11-20T03:53:56;23.30;;;10.83;;
27113;SDS011;14648;49.730;8.614;2022-11-20T03:56:28;17.73;;;9.47;;
27113;SDS011;14648;49.730;8.614;2022-11-20T03:58:56;20.30;;;11.20;;
27113;SDS011;14648;49.730;8.614;2022-11-20T04:01:33;21.93;;;11.13;;
27113;SDS011;14648;49.730;8.614;2022-11-20T04:04:02;25.40;;;12.00;;
27113;SDS011;14648;49.730;8.614;2022-11-20T04:06:37;25.13;;;12.77;;
27113;SDS011;14648;49.730;8.614;2022-11-20T04:09:03;22.90;;;12.27;;
27113;SDS011;14648;49.730;8.614;2022-11-20T04:11:31;22.90;;;12.30;;
27113;SDS011;14648;49.730;8.614;2022-11-20T04:14:03;20.93;;;10.83;;
27113;SDS011;14648;49.730;8.614;2022-11-20T04:16:32;25.20;;;12.33;;
27113;SDS011;14648;49.730;8.614;2022-11-20T04:19:00;19.77;;;12.27;;
27113;SDS011;14648;49.730;8.614;2022-11-20T04:21:29;22.23;;;11.10;;
27113;SDS011;14648;49.730;8.614;2022-11-20T04:23:55;22.30;;;12.57;;
27113;SDS011;14648;49.730;8.614;2022-11-20T04:26:22;21.20;;;11.97;;
27113;SDS011;14648;49.730;8.614;2022-11-20T04:28:50;19.80;;;12.37;;
27113;SDS011;14648;49.730;8.614;2022-11-20T04:31:17;22.37;;;12.10;;
27113;SDS011;14648;49.730;8.614;2022-11-20T04:33:46;22.80;;;11.70;;
27113;SDS011;14648;49.730;8.614;2022-11-20T04:38:42;22.63;;;11.30;;
27113;SDS011;14648;49.730;8.614;2022-11-20T04:41:14;26.33;;;12.60;;
27113;SDS011;14648;49.730;8.614;2022-11-20T04:43:53;27.90;;;13.10;;
27113;SDS011;14648;49.730;8.614;2022-11-20T04:46:24;27.27;;;13.20;;
27113;SDS011;14648;49.730;8.614;2022-11-20T04:48:51;24.13;;;11.57;;
27113;SDS011;14648;49.730;8.614;2022-11-20T04:51:17;23.00;;;12.13;;
27113;SDS011;14648;49.730;8.614;2022-11-20T04:53:43;20.67;;;10.93;;
27113;SDS011;14648;49.730;8.614;2022-11-20T04:56:09;24.37;;;12.43;;
27113;SDS011;14648;49.730;8.614;2022-11-20T04:58:37;26.80;;;13.53;;
27113;SDS011;14648;49.730;8.614;2022-11-20T05:01:03;23.20;;;12.07;;
27113;SDS011;14648;49.730;8.614;2022-11-20T05:03:31;27.10;;;12.77;;
27113;SDS011;14648;49.730;8.614;2022-11-20T05:06:00;21.03;;;11.80;;
27113;SDS011;14648;49.730;8.614;2022-11-20T05:08:27;25.90;;;12.47;;
27113;SDS011;14648;49.730;8.614;2022-11-20T05:10:58;25.00;;;11.80;;
27113;SDS011;14648;49.730;8.614;2022-11-20T05:13:29;22.20;;;11.87;;
27113;SDS011;14648;49.730;8.614;2022-11-20T05:15:55;23.67;;;13.40;;
27113;SDS011;14648;49.730;8.614;2022-11-20T05:18:20;22.53;;;12.00;;
27113;SDS011;14648;49.730;8.614;2022-11-20T05:20:46;20.17;;;11.60;;
27113;SDS011;14648;49.730;8.614;2022-11-20T05:23:12;22.27;;;12.60;;
27113;SDS011;14648;49.730;8.614;2022-11-20T05:25:37;29.47;;;13.37;;
27113;SDS011;14648;49.730;8.614;2022-11-20T05:28:03;24.80;;;13.37;;
27113;SDS011;14648;49.730;8.614;2022-11-20T05:30:28;24.47;;;12.87;;
27113;SDS011;14648;49.730;8.614;2022-11-20T05:32:55;25.83;;;12.50;;
27113;SDS011;14648;49.730;8.614;2022-11-20T05:35:21;23.73;;;12.37;;
27113;SDS011;14648;49.730;8.614;2022-11-20T05:37:46;24.10;;;13.70;;
27113;SDS011;14648;49.730;8.614;2022-11-20T05:40:12;21.70;;;12.40;;
27113;SDS011;14648;49.730;8.614;2022-11-20T05:42:38;21.43;;;11.53;;
27113;SDS011;14648;49.730;8.614;2022-11-20T05:45:04;21.73;;;11.40;;
27113;SDS011;14648;49.730;8.614;2022-11-20T05:47:31;23.87;;;11.47;;
27113;SDS011;14648;49.730;8.614;2022-11-20T05:49:59;23.50;;;11.77;;
27113;SDS011;14648;49.730;8.614;2022-11-20T05:52:27;27.63;;;13.13;;
27113;SDS011;14648;49.730;8.614;2022-11-20T05:54:54;27.73;;;13.30;;
27113;SDS011;14648;49.730;8.614;2022-11-20T05:57:20;25.40;;;11.87;;
27113;SDS011;14648;49.730;8.614;2022-11-20T05:59:45;27.17;;;13.87;;
27113;SDS011;14648;49.730;8.614;2022-11-20T06:02:11;27.00;;;13.60;;
27113;SDS011;14648;49.730;8.614;2022-11-20T06:04:37;28.93;;;13.93;;
27113;SDS011;14648;49.730;8.614;2022-11-20T06:07:04;26.30;;;14.10;;
27113;SDS011;14648;49.730;8.614;2022-11-20T06:09:30;27.00;;;14.10;;
27113;SDS011;14648;49.730;8.614;2022-11-20T06:11:56;25.27;;;13.80;;
27113;SDS011;14648;49.730;8.614;2022-11-20T06:14:21;32.33;;;14.20;;
27113;SDS011;14648;49.730;8.614;2022-11-20T06:16:47;28.57;;;15.13;;
27113;SDS011;14648;49.730;8.614;2022-11-20T06:19:12;30.93;;;15.80;;
27113;SDS011;14648;49.730;8.614;2022-11-20T06:21:38;34.60;;;15.60;;
27113;SDS011;14648;49.730;8.614;2022-11-20T06:24:04;31.37;;;14.70;;
27113;SDS011;14648;49.730;8.614;2022-11-20T06:26:30;37.73;;;18.60;;
27113;SDS011;14648;49.730;8.614;2022-11-20T06:28:56;34.73;;;16.70;;
27113;SDS011;14648;49.730;8.614;2022-11-20T06:31:22;38.27;;;16.97;;
27113;SDS011;14648;49.730;8.614;2022-11-20T06:33:50;28.17;;;14.53;;
27113;SDS011;14648;49.730;8.614;2022-11-20T06:36:18;32.57;;;16.23;;
27113;SDS011;14648;49.730;8.614;2022-11-20T06:38:47;30.70;;;15.23;;
27113;SDS011;14648;49.730;8.614;2022-11-20T06:41:14;31.57;;;15.83;;
27113;SDS011;14648;49.730;8.614;2022-11-20T06:43:44;26.20;;;15.10;;
27113;SDS011;14648;49.730;8.614;2022-11-20T06:46:10;29.03;;;14.17;;
27113;SDS011;14648;49.730;8.614;2022-11-20T06:48:37;29.63;;;14.93;;
27113;SDS011;14648;49.730;8.614;2022-11-20T06:51:05;32.43;;;15.00;;
27113;SDS011;14648;49.730;8.614;2022-11-20T06:53:32;28.70;;;14.90;;
27113;SDS011;14648;49.730;8.614;2022-11-20T06:55:59;28.67;;;14.43;;
27113;SDS011;14648;49.730;8.614;2022-11-20T06:58:28;26.40;;;13.57;;
27113;SDS011;14648;49.730;8.614;2022-11-20T07:00:59;25.33;;;13.00;;
27113;SDS011;14648;49.730;8.614;2022-11-20T07:03:30;26.57;;;13.50;;
27113;SDS011;14648;49.730;8.614;2022-11-20T07:05:56;25.33;;;12.50;;
27113;SDS011;14648;49.730;8.614;2022-11-20T07:08:28;32.57;;;13.83;;
27113;SDS011;14648;49.730;8.614;2022-11-20T07:10:58;29.80;;;14.40;;
27113;SDS011;14648;49.730;8.614;2022-11-20T07:13:27;25.27;;;13.97;;
27113;SDS011;14648;49.730;8.614;2022-11-20T07:15:53;27.03;;;13.80;;
27113;SDS011;14648;49.730;8.614;2022-11-20T07:18:19;24.90;;;13.30;;
27113;SDS011;14648;49.730;8.614;2022-11-20T07:20:45;30.77;;;13.50;;
27113;SDS011;14648;49.730;8.614;2022-11-20T07:23:11;29.20;;;14.23;;
27113;SDS011;14648;49.730;8.614;2022-11-20T07:25:37;26.77;;;13.57;;
27113;SDS011;14648;49.730;8.614;2022-11-20T07:28:02;29.80;;;14.37;;
27113;SDS011;14648;49.730;8.614;2022-11-20T07:30:28;31.90;;;13.93;;
27113;SDS011;14648;49.730;8.614;2022-11-20T07:32:55;29.47;;;13.70;;
27113;SDS011;14648;49.730;8.614;2022-11-20T07:35:22;28.07;;;12.20;;
27113;SDS011;14648;49.730;8.614;2022-11-20T07:37:49;25.63;;;13.30;;
27113;SDS011;14648;49.730;8.614;2022-11-20T07:40:14;27.67;;;13.57;;
27113;SDS011;14648;49.730;8.614;2022-11-20T07:42:48;36.40;;;16.47;;
27113;SDS011;14648;49.730;8.614;2022-11-20T07:45:18;35.63;;;16.30;;
27113;SDS011;14648;49.730;8.614;2022-11-20T07:47:45;27.10;;;15.20;;
27113;SDS011;14648;49.730;8.614;2022-11-20T07:50:11;25.37;;;14.00;;
27113;SDS011;14648;49.730;8.614;2022-11-20T07:52:37;24.80;;;14.33;;
27113;SDS011;14648;49.730;8.614;2022-11-20T07:55:03;28.83;;;14.40;;
27113;SDS011;14648;49.730;8.614;2022-11-20T07:57:30;26.67;;;14.00;;
27113;SDS011;14648;49.730;8.614;2022-11-20T07:59:55;28.20;;;14.40;;
27113;SDS011;14648;49.730;8.614;2022-11-20T08:02:21;31.63;;;14.40;;
27113;SDS011;14648;49.730;8.614;2022-11-20T08:04:47;26.77;;;13.80;;
27113;SDS011;14648;49.730;8.614;2022-11-20T08:07:12;34.77;;;14.27;;
27113;SDS011;14648;49.730;8.614;2022-11-20T08:09:38;27.93;;;15.03;;
27113;SDS011;14648;49.730;8.614;2022-11-20T08:12:04;29.33;;;15.57;;
27113;SDS011;14648;49.730;8.614;2022-11-20T08:14:48;29.70;;;14.53;;
27113;SDS011;14648;49.730;8.614;2022-11-20T08:17:14;31.03;;;17.70;;
27113;SDS011;14648;49.730;8.614;2022-11-20T08:19:39;31.77;;;18.00;;
27113;SDS011;14648;49.730;8.614;2022-11-20T08:22:05;30.73;;;15.47;;
27113;SDS011;14648;49.730;8.614;2022-11-20T08:24:30;32.63;;;16.40;;
27113;SDS011;14648;49.730;8.614;2022-11-20T08:26:59;31.70;;;14.83;;
27113;SDS011;14648;49.730;8.614;2022-11-20T08:29:26;36.90;;;16.10;;
27113;SDS011;14648;49.730;8.614;2022-11-20T08:31:52;35.50;;;16.07;;
27113;SDS011;14648;49.730;8.614;2022-11-20T08:34:17;31.30;;;15.47;;
27113;SDS011;14648;49.730;8.614;2022-11-20T08:36:44;30.37;;;14.83;;
27113;SDS011;14648;49.730;8.614;2022-11-20T08:39:13;31.60;;;16.30;;
27113;SDS011;14648;49.730;8.614;2022-11-20T08:41:39;31.70;;;15.30;;
27113;SDS011;14648;49.730;8.614;2022-11-20T08:44:05;31.73;;;17.27;;
27113;SDS011;14648;49.730;8.614;2022-11-20T08:46:33;30.03;;;17.00;;
27113;SDS011;14648;49.730;8.614;2022-11-20T08:49:02;38.30;;;19.70;;
27113;SDS011;14648;49.730;8.614;2022-11-20T08:51:29;35.67;;;16.77;;
27113;SDS011;14648;49.730;8.614;2022-11-20T08:53:55;35.90;;;16.90;;
27113;SDS011;14648;49.730;8.614;2022-11-20T08:56:21;31.70;;;15.93;;
27113;SDS011;14648;49.730;8.614;2022-11-20T08:58:47;36.30;;;16.80;;
27113;SDS011;14648;49.730;8.614;2022-11-20T09:01:12;28.77;;;14.73;;
27113;SDS011;14648;49.730;8.614;2022-11-20T09:03:38;30.43;;;15.67;;
27113;SDS011;14648;49.730;8.614;2022-11-20T09:06:05;35.97;;;17.40;;
27113;SDS011;14648;49.730;8.614;2022-11-20T09:08:33;31.10;;;17.07;;
27113;SDS011;14648;49.730;8.614;2022-11-20T09:11:00;39.87;;;19.57;;
27113;SDS011;14648;49.730;8.614;2022-11-20T09:13:27;32.87;;;16.53;;
27113;SDS011;14648;49.730;8.614;2022-11-20T09:15:58;43.30;;;19.50;;
27113;SDS011;14648;49.730;8.614;2022-11-20T09:18:32;31.90;;;17.17;;
27113;SDS011;14648;49.730;8.614;2022-11-20T09:21:02;36.57;;;16.77;;
27113;SDS011;14648;49.730;8.614;2022-11-20T09:23:31;35.10;;;17.30;;
27113;SDS011;14648;49.730;8.614;2022-11-20T09:26:03;30.17;;;15.37;;
27113;SDS011;14648;49.730;8.614;2022-11-20T09:28:30;38.73;;;17.30;;
27113;SDS011;14648;49.730;8.614;2022-11-20T09:30:56;31.90;;;17.83;;
27113;SDS011;14648;49.730;8.614;2022-11-20T09:33:23;38.43;;;16.70;;
27113;SDS011;14648;49.730;8.614;2022-11-20T09:35:48;37.67;;;18.23;;
27113;SDS011;14648;49.730;8.614;2022-11-20T09:38:14;38.73;;;19.07;;
27113;SDS011;14648;49.730;8.614;2022-11-20T09:41:02;38.87;;;17.50;;
27113;SDS011;14648;49.730;8.614;2022-11-20T09:43:32;36.43;;;19.53;;
27113;SDS011;14648;49.730;8.614;2022-11-20T09:46:39;40.20;;;19.67;;
27113;SDS011;14648;49.730;8.614;2022-11-20T09:49:32;35.33;;;18.70;;
27113;SDS011;14648;49.730;8.614;2022-11-20T09:52:54;34.33;;;18.13;;
27113;SDS011;14648;49.730;8.614;2022-11-20T09:55:32;38.17;;;17.13;;
27113;SDS011;14648;49.730;8.614;2022-11-20T09:58:00;38.67;;;18.20;;
27113;SDS011;14648;49.730;8.614;2022-11-20T10:00:27;37.43;;;19.10;;
27113;SDS011;14648;49.730;8.614;2022-11-20T10:03:01;32.47;;;18.07;;
27113;SDS011;14648;49.730;8.614;2022-11-20T10:05:52;35.37;;;17.60;;
27113;SDS011;14648;49.730;8.614;2022-11-20T10:08:29;41.07;;;17.50;;
27113;SDS011;14648;49.730;8.614;2022-11-20T10:11:21;34.70;;;17.40;;
27113;SDS011;14648;49.730;8.614;2022-11-20T10:14:11;35.47;;;17.63;;
27113;SDS011;14648;49.730;8.614;2022-11-20T10:25:33;42.90;;;18.80;;
27113;SDS011;14648;49.730;8.614;2022-11-20T10:31:03;34.27;;;17.47;;
27113;SDS011;14648;49.730;8.614;2022-11-20T10:33:36;42.60;;;18.10;;
27113;SDS011;14648;49.730;8.614;2022-11-20T10:38:47;37.97;;;16.43;;
27113;SDS011;14648;49.730;8.614;2022-11-20T10:41:32;32.00;;;16.60;;
27113;SDS011;14648;49.730;8.614;2022-11-20T10:44:09;37.30;;;18.03;;
27113;SDS011;14648;49.730;8.614;2022-11-20T10:47:05;33.73;;;15.70;;
27113;SDS011;14648;49.730;8.614;2022-11-20T10:49:37;29.53;;;15.60;;
27113;SDS011;14648;49.730;8.614;2022-11-20T11:00:38;31.67;;;15.97;;
27113;SDS011;14648;49.730;8.614;2022-11-20T11:03:07;33.03;;;17.57;;
27113;SDS011;14648;49.730;8.614;2022-11-20T11:06:08;28.60;;;15.20;;
27113;SDS011;14648;49.730;8.614;2022-11-20T11:08:46;38.40;;;17.63;;
27113;SDS011;14648;49.730;8.614;2022-11-20T11:11:21;43.10;;;17.43;;
27113;SDS011;14648;49.730;8.614;2022-11-20T11:14:08;33.73;;;16.13;;
27113;SDS011;14648;49.730;8.614;2022-11-20T11:16:48;36.10;;;16.60;;
27113;SDS011;14648;49.730;8.614;2022-11-20T11:19:14;38.43;;;17.17;;
27113;SDS011;14648;49.730;8.614;2022-11-20T11:21:46;34.57;;;17.40;;
27113;SDS011;14648;49.730;8.614;2022-11-20T11:24:19;37.93;;;18.83;;
27113;SDS011;14648;49.730;8.614;2022-11-20T11:26:55;36.17;;;16.90;;
27113;SDS011;14648;49.730;8.614;2022-11-20T11:29:22;40.57;;;17.60;;
27113;SDS011;14648;49.730;8.614;2022-11-20T11:31:48;42.20;;;19.43;;
27113;SDS011;14648;49.730;8.614;2022-11-20T11:34:15;45.10;;;21.73;;
27113;SDS011;14648;49.730;8.614;2022-11-20T11:36:56;39.17;;;17.87;;
27113;SDS011;14648;49.730;8.614;2022-11-20T11:39:23;42.50;;;18.90;;
27113;SDS011;14648;49.730;8.614;2022-11-20T11:41:50;43.27;;;19.50;;
27113;SDS011;14648;49.730;8.614;2022-11-20T11:44:20;41.30;;;18.63;;
27113;SDS011;14648;49.730;8.614;2022-11-20T11:47:10;46.07;;;20.90;;
27113;SDS011;14648;49.730;8.614;2022-11-20T11:49:48;37.80;;;18.80;;
27113;SDS011;14648;49.730;8.614;2022-11-20T11:52:17;37.00;;;19.63;;
27113;SDS011;14648;49.730;8.614;2022-11-20T11:54:48;39.63;;;18.73;;
27113;SDS011;14648;49.730;8.614;2022-11-20T12:00:06;35.93;;;16.70;;
27113;SDS011;14648;49.730;8.614;2022-11-20T12:05:17;34.53;;;18.93;;
27113;SDS011;14648;49.730;8.614;2022-11-20T12:08:17;38.50;;;17.47;;
27113;SDS011;14648;49.730;8.614;2022-11-20T12:10:54;35.43;;;18.03;;
27113;SDS011;14648;49.730;8.614;2022-11-20T12:13:35;34.83;;;18.30;;
27113;SDS011;14648;49.730;8.614;2022-11-20T12:16:07;39.30;;;19.60;;
27113;SDS011;14648;49.730;8.614;2022-11-20T12:18:39;33.70;;;17.40;;
27113;SDS011;14648;49.730;8.614;2022-11-20T12:21:27;34.40;;;17.87;;
27113;SDS011;14648;49.730;8.614;2022-11-20T12:24:15;33.53;;;17.83;;
27113;SDS011;14648;49.730;8.614;2022-11-20T12:30:01;28.37;;;15.30;;
27113;SDS011;14648;49.730;8.614;2022-11-20T12:44:50;17.40;;;11.40;;
27113;SDS011;14648;49.730;8.614;2022-11-20T12:54:01;20.60;;;11.40;;
27113;SDS011;14648;49.730;8.614;2022-11-20T12:57:06;19.13;;;10.90;;
27113;SDS011;14648;49.730;8.614;2022-11-20T13:02:46;15.00;;;9.40;;
27113;SDS011;14648;49.730;8.614;2022-11-20T13:08:33;13.40;;;7.87;;
27113;SDS011;14648;49.730;8.614;2022-11-20T13:19:18;11.27;;;7.13;;
27113;SDS011;14648;49.730;8.614;2022-11-20T13:21:46;14.40;;;7.03;;
27113;SDS011;14648;49.730;8.614;2022-11-20T13:29:37;13.50;;;8.97;;
27113;SDS011;14648;49.730;8.614;2022-11-20T13:32:16;13.77;;;8.37;;
27113;SDS011;14648;49.730;8.614;2022-11-20T13:34:55;14.03;;;8.20;;
27113;SDS011;14648;49.730;8.614;2022-11-20T13:37:30;15.37;;;7.90;;
27113;SDS011;14648;49.730;8.614;2022-11-20T13:42:35;11.87;;;7.67;;
27113;SDS011;14648;49.730;8.614;2022-11-20T13:45:09;15.27;;;7.17;;
27113;SDS011;14648;49.730;8.614;2022-11-20T13:47:50;12.57;;;7.83;;
27113;SDS011;14648;49.730;8.614;2022-11-20T13:50:18;14.70;;;6.77;;
27113;SDS011;14648;49.730;8.614;2022-11-20T13:55:38;12.67;;;6.60;;
27113;SDS011;14648;49.730;8.614;2022-11-20T13:58:19;13.40;;;7.80;;
27113;SDS011;14648;49.730;8.614;2022-11-20T14:01:17;9.37;;;6.80;;
27113;SDS011;14648;49.730;8.614;2022-11-20T14:03:47;9.93;;;6.60;;
27113;SDS011;14648;49.730;8.614;2022-11-20T14:08:57;6.27;;;5.10;;
27113;SDS011;14648;49.730;8.614;2022-11-20T14:11:28;9.20;;;5.63;;
27113;SDS011;14648;49.730;8.614;2022-11-20T14:13:56;7.40;;;5.17;;
27113;SDS011;14648;49.730;8.614;2022-11-20T14:16:34;11.63;;;6.23;;
27113;SDS011;14648;49.730;8.614;2022-11-20T14:21:55;8.70;;;5.43;;
27113;SDS011;14648;49.730;8.614;2022-11-20T14:24:46;9.30;;;5.17;;
27113;SDS011;14648;49.730;8.614;2022-11-20T14:27:18;7.40;;;4.90;;
27113;SDS011;14648;49.730;8.614;2022-11-20T14:29:46;10.70;;;5.80;;
27113;SDS011;14648;49.730;8.614;2022-11-20T14:32:15;7.90;;;5.40;;
27113;SDS011;14648;49.730;8.614;2022-11-20T14:34:48;14.07;;;6.67;;
27113;SDS011;14648;49.730;8.614;2022-11-20T14:37:22;8.63;;;6.37;;
27113;SDS011;14648;49.730;8.614;2022-11-20T14:39:51;9.10;;;5.93;;
27113;SDS011;14648;49.730;8.614;2022-11-20T14:42:23;8.03;;;6.20;;
27113;SDS011;14648;49.730;8.614;2022-11-20T14:44:57;27.50;;;8.80;;
27113;SDS011;14648;49.730;8.614;2022-11-20T14:47:30;11.33;;;6.40;;
27113;SDS011;14648;49.730;8.614;2022-11-20T14:49:56;21.93;;;7.37;;
27113;SDS011;14648;49.730;8.614;2022-11-20T14:52:25;11.87;;;6.27;;
27113;SDS011;14648;49.730;8.614;2022-11-20T14:54:53;10.67;;;6.17;;
27113;SDS011;14648;49.730;8.614;2022-11-20T14:57:31;12.53;;;6.13;;
27113;SDS011;14648;49.730;8.614;2022-11-20T15:02:43;11.57;;;6.50;;
27113;SDS011;14648;49.730;8.614;2022-11-20T15:05:11;10.53;;;6.53;;
27113;SDS011;14648;49.730;8.614;2022-11-20T15:07:39;10.03;;;5.20;;
27113;SDS011;14648;49.730;8.614;2022-11-20T15:13:00;14.13;;;5.13;;
27113;SDS011;14648;49.730;8.614;2022-11-20T15:15:39;8.23;;;4.30;;
27113;SDS011;14648;49.730;8.614;2022-11-20T15:18:13;6.90;;;4.73;;
27113;SDS011;14648;49.730;8.614;2022-11-20T15:20:44;10.70;;;5.87;;
27113;SDS011;14648;49.730;8.614;2022-11-20T15:23:11;8.60;;;4.20;;
27113;SDS011;14648;49.730;8.614;2022-11-20T15:25:43;6.80;;;5.50;;
27113;SDS011;14648;49.730;8.614;2022-11-20T15:31:01;12.77;;;5.27;;
27113;SDS011;14648;49.730;8.614;2022-11-20T15:33:28;12.37;;;5.37;;
27113;SDS011;14648;49.730;8.614;2022-11-20T15:35:54;6.97;;;4.50;;
27113;SDS011;14648;49.730;8.614;2022-11-20T15:38:20;7.20;;;3.60;;
27113;SDS011;14648;49.730;8.614;2022-11-20T15:40:45;8.13;;;3.97;;
27113;SDS011;14648;49.730;8.614;2022-11-20T15:43:11;7.63;;;4.30;;
27113;SDS011;14648;49.730;8.614;2022-11-20T15:48:13;8.93;;;4.13;;
27113;SDS011;14648;49.730;8.614;2022-11-20T15:53:39;8.40;;;4.80;;
27113;SDS011;14648;49.730;8.614;2022-11-20T15:56:13;11.23;;;7.20;;
27113;SDS011;14648;49.730;8.614;2022-11-20T15:58:43;14.33;;;5.10;;
27113;SDS011;14648;49.730;8.614;2022-11-20T16:01:13;6.83;;;4.10;;
27113;SDS011;14648;49.730;8.614;2022-11-20T16:03:42;35.40;;;8.87;;
27113;SDS011;14648;49.730;8.614;2022-11-20T16:06:07;9.80;;;5.10;;
27113;SDS011;14648;49.730;8.614;2022-11-20T16:08:33;7.10;;;4.23;;
27113;SDS011;14648;49.730;8.614;2022-11-20T16:10:59;9.23;;;3.53;;
27113;SDS011;14648;49.730;8.614;2022-11-20T16:13:25;5.10;;;3.33;;
27113;SDS011;14648;49.730;8.614;2022-11-20T16:16:11;9.77;;;4.00;;
27113;SDS011;14648;49.730;8.614;2022-11-20T16:18:48;4.43;;;3.57;;
27113;SDS011;14648;49.730;8.614;2022-11-20T16:21:15;5.80;;;4.00;;
27113;SDS011;14648;49.730;8.614;2022-11-20T16:23:41;12.37;;;4.10;;